Ce_breeze — ELSQ7 — position and weather

sailwx.info

Track history (hours):
 
Tides and Currents Weather Stations Pressure Air Temp Water Temp Dewpoint Dewpoint Depression Visibility Wind Speed Wind Dir Waves Ship Positions

Ce_breeze

Last reported at 2016-Jun-28 01:29 UTC. Time now 2016-Jul-01 22:36 UTC.
Position N 36°35' E 024°15'.

Length 240 m; draft 8 m.

Type: Tanker. MMSI: 636010400.

Date/timePositionNaut miles runAvg speedWind from/ knotsBaromVisibWave heightAir tempDewpointWater temp
2016-Jun-28 01:29N 36°35' E 024°15'1213.0
2016-Jun-28 00:32N 36°41' E 024°02'1010.1
2016-Jun-27 23:33N 36°51' E 023°60'1312.7
2016-Jun-27 22:33N 37°03' E 023°54'1313.1
2016-Jun-27 21:33N 37°16' E 023°51'1312.9
2016-Jun-27 20:33N 37°28' E 023°46'1312.7
2016-Jun-27 19:33N 37°40' E 023°41'1111.3
2016-Jun-27 18:33N 37°50' E 023°34'2 2.1
2016-Jun-27 17:34N 37°51' E 023°31'0 0.0
2016-Jun-27 16:33N 37°51' E 023°31'0 0.0
2016-Jun-27 15:33N 37°51' E 023°31'0 0.0
2016-Jun-27 14:34N 37°51' E 023°31'0 0.0
2016-Jun-27 13:32N 37°51' E 023°31'0 0.0
2016-Jun-27 12:34N 37°51' E 023°31'0 0.2
2016-Jun-27 11:32N 37°50' E 023°32'0 0.0
2016-Jun-27 10:32N 37°50' E 023°32'0 0.0
2016-Jun-27 09:33N 37°50' E 023°32'0 0.0
2016-Jun-27 08:32N 37°50' E 023°32'0 0.0
2016-Jun-27 07:29N 37°50' E 023°32'0 0.0
2016-Jun-27 06:32N 37°50' E 023°32'0 0.0
2016-Jun-27 05:31N 37°50' E 023°32'0 0.1
2016-Jun-27 04:31N 37°50' E 023°31'0 0.0
2016-Jun-27 03:31N 37°50' E 023°31'0 0.1
2016-Jun-27 02:31N 37°50' E 023°32'0 0.0
2016-Jun-27 01:31N 37°50' E 023°31'0 0.1
2016-Jun-27 00:31N 37°50' E 023°32'0 0.0
2016-Jun-26 23:31N 37°50' E 023°32'0 0.1
2016-Jun-26 22:31N 37°51' E 023°31'0 0.1
2016-Jun-26 21:31N 37°51' E 023°31'0 0.0
2016-Jun-26 20:34N 37°51' E 023°31'0 0.0
2016-Jun-26 19:34N 37°51' E 023°31'0 0.0
2016-Jun-26 18:33N 37°51' E 023°31'0 0.0
2016-Jun-26 17:34N 37°51' E 023°31'0 0.0
2016-Jun-26 16:32N 37°51' E 023°31'0 0.0
2016-Jun-26 15:32N 37°51' E 023°31'0 0.0
2016-Jun-26 14:32N 37°51' E 023°31'1 0.5
2016-Jun-26 13:33N 37°51' E 023°31'5 5.1
2016-Jun-26 12:33N 37°52' E 023°25'6 6.3
2016-Jun-26 11:33N 37°58' E 023°23'0 0.2
2016-Jun-26 10:33N 37°58' E 023°23'0 0.0
2016-Jun-26 09:33N 37°58' E 023°23'0 0.0
2016-Jun-26 08:33N 37°58' E 023°23'0 0.0
2016-Jun-26 07:33N 37°58' E 023°23'0 0.0
2016-Jun-26 06:33N 37°58' E 023°23'0 0.0
2016-Jun-26 05:34N 37°58' E 023°23'0 0.0
2016-Jun-26 04:33N 37°58' E 023°23'0 0.0
2016-Jun-26 03:34N 37°58' E 023°23'0 0.0
2016-Jun-26 02:33N 37°58' E 023°23'0 0.0
2016-Jun-26 01:33N 37°58' E 023°23'0 0.0
2016-Jun-26 00:33N 37°58' E 023°23'0 0.0
2016-Jun-25 23:33N 37°58' E 023°23'0 0.0
2016-Jun-25 22:33N 37°58' E 023°23'0 0.0
2016-Jun-25 21:33N 37°58' E 023°23'0 0.0
2016-Jun-25 20:33N 37°58' E 023°23'0 0.0
2016-Jun-25 19:31N 37°58' E 023°23'0 0.0
2016-Jun-25 18:31N 37°58' E 023°23'0 0.0
2016-Jun-25 17:31N 37°58' E 023°23'0 0.0
2016-Jun-25 16:31N 37°58' E 023°23'0 0.0
2016-Jun-25 15:31N 37°58' E 023°23'0 0.0
2016-Jun-25 14:31N 37°58' E 023°23'0 0.0
2016-Jun-25 13:31N 37°58' E 023°23'0 0.0
2016-Jun-25 12:31N 37°58' E 023°23'0 0.0
2016-Jun-25 11:31N 37°58' E 023°23'0 0.0
2016-Jun-25 10:31N 37°58' E 023°23'0 0.0
2016-Jun-25 09:33N 37°58' E 023°23'0 0.0
2016-Jun-25 08:33N 37°58' E 023°23'0 0.0
2016-Jun-25 07:34N 37°58' E 023°23'0 0.0
2016-Jun-25 06:33N 37°58' E 023°23'1 1.0
2016-Jun-25 05:34N 37°57' E 023°23'2 2.5
2016-Jun-25 04:34N 37°55' E 023°21'1 0.5
2016-Jun-25 03:33N 37°55' E 023°21'0 0.1
2016-Jun-25 02:33N 37°55' E 023°21'5 4.7
2016-Jun-25 01:34N 37°52' E 023°25'9 9.3
2016-Jun-25 00:33N 37°50' E 023°36'9 9.2
2016-Jun-24 23:34N 37°43' E 023°44'1111.3
2016-Jun-24 22:34N 37°32' E 023°48'1211.3
2016-Jun-24 21:32N 37°21' E 023°51'45211.0
2016-Jun-23 04:33N 31°24' E 029°25'57 2.1
2016-Jun-22 01:29N 32°17' E 029°04'34913.5
2016-Jun-20 23:33N 37°29' E 025°53'1413.5
2016-Jun-20 22:32N 37°41' E 025°45'11812.7
2016-Jun-20 13:15N 39°39' E 025°40'1013.0
2016-Jun-20 12:28N 39°49' E 025°43'1213.0
2016-Jun-20 11:32N 39°58' E 025°55'63 9.0
2016-Jun-20 04:33N 40°31' E 027°05'1 0.8
2016-Jun-20 03:32N 40°31' E 027°06'199 5.9
2016-Jun-18 18:04N 43°34' E 028°52'611.8
2016-Jun-18 17:33N 43°40' E 028°51'1311.7
2016-Jun-18 16:27N 43°53' E 028°49'14 4.7
2016-Jun-18 13:33N 44°05' E 028°57'  
Track history (hours):
 
Tides and Currents Weather Stations Pressure Air Temp Water Temp Dewpoint Dewpoint Depression Visibility Wind Speed Wind Dir Waves Ship Positions

Ce_breeze

Last reported at 2016-Jun-28 01:29 UTC. Time now 2016-Jul-01 22:36 UTC.
Position N 36°35' E 024°15'.

Length 240 m; draft 8 m.

Type: Tanker. MMSI: 636010400.

Date/timePositionNaut miles runAvg speedWind from/ knotsBaromVisibWave heightAir tempDewpointWater temp
2016-Jun-28 01:29N 36°35' E 024°15'1213.0
2016-Jun-28 00:32N 36°41' E 024°02'1010.1
2016-Jun-27 23:33N 36°51' E 023°60'1312.7
2016-Jun-27 22:33N 37°03' E 023°54'1313.1
2016-Jun-27 21:33N 37°16' E 023°51'1312.9
2016-Jun-27 20:33N 37°28' E 023°46'1312.7
2016-Jun-27 19:33N 37°40' E 023°41'1111.3
2016-Jun-27 18:33N 37°50' E 023°34'2 2.1
2016-Jun-27 17:34N 37°51' E 023°31'0 0.0
2016-Jun-27 16:33N 37°51' E 023°31'0 0.0
2016-Jun-27 15:33N 37°51' E 023°31'0 0.0
2016-Jun-27 14:34N 37°51' E 023°31'0 0.0
2016-Jun-27 13:32N 37°51' E 023°31'0 0.0
2016-Jun-27 12:34N 37°51' E 023°31'0 0.2
2016-Jun-27 11:32N 37°50' E 023°32'0 0.0
2016-Jun-27 10:32N 37°50' E 023°32'0 0.0
2016-Jun-27 09:33N 37°50' E 023°32'0 0.0
2016-Jun-27 08:32N 37°50' E 023°32'0 0.0
2016-Jun-27 07:29N 37°50' E 023°32'0 0.0
2016-Jun-27 06:32N 37°50' E 023°32'0 0.0
2016-Jun-27 05:31N 37°50' E 023°32'0 0.1
2016-Jun-27 04:31N 37°50' E 023°31'0 0.0
2016-Jun-27 03:31N 37°50' E 023°31'0 0.1
2016-Jun-27 02:31N 37°50' E 023°32'0 0.0
2016-Jun-27 01:31N 37°50' E 023°31'0 0.1
2016-Jun-27 00:31N 37°50' E 023°32'0 0.0
2016-Jun-26 23:31N 37°50' E 023°32'0 0.1
2016-Jun-26 22:31N 37°51' E 023°31'0 0.1
2016-Jun-26 21:31N 37°51' E 023°31'0 0.0
2016-Jun-26 20:34N 37°51' E 023°31'0 0.0
2016-Jun-26 19:34N 37°51' E 023°31'0 0.0
2016-Jun-26 18:33N 37°51' E 023°31'0 0.0
2016-Jun-26 17:34N 37°51' E 023°31'0 0.0
2016-Jun-26 16:32N 37°51' E 023°31'0 0.0
2016-Jun-26 15:32N 37°51' E 023°31'0 0.0
2016-Jun-26 14:32N 37°51' E 023°31'1 0.5
2016-Jun-26 13:33N 37°51' E 023°31'5 5.1
2016-Jun-26 12:33N 37°52' E 023°25'6 6.3
2016-Jun-26 11:33N 37°58' E 023°23'0 0.2
2016-Jun-26 10:33N 37°58' E 023°23'0 0.0
2016-Jun-26 09:33N 37°58' E 023°23'0 0.0
2016-Jun-26 08:33N 37°58' E 023°23'0 0.0
2016-Jun-26 07:33N 37°58' E 023°23'0 0.0
2016-Jun-26 06:33N 37°58' E 023°23'0 0.0
2016-Jun-26 05:34N 37°58' E 023°23'0 0.0
2016-Jun-26 04:33N 37°58' E 023°23'0 0.0
2016-Jun-26 03:34N 37°58' E 023°23'0 0.0
2016-Jun-26 02:33N 37°58' E 023°23'0 0.0
2016-Jun-26 01:33N 37°58' E 023°23'0 0.0
2016-Jun-26 00:33N 37°58' E 023°23'0 0.0
2016-Jun-25 23:33N 37°58' E 023°23'0 0.0
2016-Jun-25 22:33N 37°58' E 023°23'0 0.0
2016-Jun-25 21:33N 37°58' E 023°23'0 0.0
2016-Jun-25 20:33N 37°58' E 023°23'0 0.0
2016-Jun-25 19:31N 37°58' E 023°23'0 0.0
2016-Jun-25 18:31N 37°58' E 023°23'0 0.0
2016-Jun-25 17:31N 37°58' E 023°23'0 0.0
2016-Jun-25 16:31N 37°58' E 023°23'0 0.0
2016-Jun-25 15:31N 37°58' E 023°23'0 0.0
2016-Jun-25 14:31N 37°58' E 023°23'0 0.0
2016-Jun-25 13:31N 37°58' E 023°23'0 0.0
2016-Jun-25 12:31N 37°58' E 023°23'0 0.0
2016-Jun-25 11:31N 37°58' E 023°23'0 0.0
2016-Jun-25 10:31N 37°58' E 023°23'0 0.0
2016-Jun-25 09:33N 37°58' E 023°23'0 0.0
2016-Jun-25 08:33N 37°58' E 023°23'0 0.0
2016-Jun-25 07:34N 37°58' E 023°23'0 0.0
2016-Jun-25 06:33N 37°58' E 023°23'1 1.0
2016-Jun-25 05:34N 37°57' E 023°23'2 2.5
2016-Jun-25 04:34N 37°55' E 023°21'1 0.5
2016-Jun-25 03:33N 37°55' E 023°21'0 0.1
2016-Jun-25 02:33N 37°55' E 023°21'5 4.7
2016-Jun-25 01:34N 37°52' E 023°25'9 9.3
2016-Jun-25 00:33N 37°50' E 023°36'9 9.2
2016-Jun-24 23:34N 37°43' E 023°44'1111.3
2016-Jun-24 22:34N 37°32' E 023°48'1211.3
2016-Jun-24 21:32N 37°21' E 023°51'45211.0
2016-Jun-23 04:33N 31°24' E 029°25'57 2.1
2016-Jun-22 01:29N 32°17' E 029°04'34913.5
2016-Jun-20 23:33N 37°29' E 025°53'1413.5
2016-Jun-20 22:32N 37°41' E 025°45'11812.7
2016-Jun-20 13:15N 39°39' E 025°40'1013.0
2016-Jun-20 12:28N 39°49' E 025°43'1213.0
2016-Jun-20 11:32N 39°58' E 025°55'63 9.0
2016-Jun-20 04:33N 40°31' E 027°05'1 0.8
2016-Jun-20 03:32N 40°31' E 027°06'199 5.9
2016-Jun-18 18:04N 43°34' E 028°52'611.8
2016-Jun-18 17:33N 43°40' E 028°51'1311.7
2016-Jun-18 16:27N 43°53' E 028°49'14 4.7
2016-Jun-18 13:33N 44°05' E 028°57'  

Dump ship's entire track history